Time;durP1;ratioP1;P1;durP2;ratioP2;P2;SDS_P1;SDS_P2;PMS_P1;PMS_P2;Temp;Humidity;BMP_temperature;BMP_pressure;BME280_temperature;BME280_humidity;BME280_pressure;Samples;Min_cycle;Max_cycle;Signal;HPM_P1;HPM_P2
2022/07/14 00:00:33;;;;;;;4.65;3.00;;;;;;;20.61;58.12;100957.44;4991912;28;20062;-55
2022/07/14 00:03:00;;;;;;;4.28;2.55;;;;;;;20.57;58.35;100966.72;4990864;28;20054;-54
2022/07/14 00:05:28;;;;;;;5.75;3.25;;;;;;;20.51;58.94;100976.19;4992084;28;20050;-57
2022/07/14 00:07:55;;;;;;;9.85;3.08;;;;;;;20.44;59.40;100972.38;4990218;28;20489;-57
2022/07/14 00:10:23;;;;;;;4.78;2.47;;;;;;;20.40;59.08;100963.00;4987212;28;20050;-55
2022/07/14 00:12:50;;;;;;;9.18;2.90;;;;;;;20.34;59.58;100964.38;4989687;28;20058;-56
2022/07/14 00:15:17;;;;;;;3.28;2.55;;;;;;;20.29;59.79;100968.50;5002033;28;20157;-56
2022/07/14 00:17:44;;;;;;;5.00;2.60;;;;;;;20.24;60.16;100963.59;4989557;28;20536;-56
2022/07/14 00:20:11;;;;;;;4.35;2.40;;;;;;;20.19;60.69;100964.00;4987852;28;20423;-56
2022/07/14 00:22:40;;;;;;;3.42;2.97;;;;;;;20.15;60.89;100959.09;4989345;28;20058;-57
2022/07/14 00:25:08;;;;;;;6.57;3.20;;;;;;;20.10;60.64;100964.88;4971500;28;20468;-57
2022/07/14 00:27:36;;;;;;;4.95;2.40;;;;;;;20.06;60.83;100966.16;4970614;28;20054;-58
2022/07/14 00:30:04;;;;;;;7.40;2.78;;;;;;;20.02;60.96;100961.22;4983888;28;20061;-57
2022/07/14 00:32:35;;;;;;;4.00;2.65;;;;;;;19.96;61.09;100966.16;4990023;28;20062;-53
2022/07/14 00:35:03;;;;;;;7.28;3.53;;;;;;;19.89;62.17;100965.03;4987920;28;20058;-54
2022/07/14 00:37:31;;;;;;;3.45;2.55;;;;;;;19.87;62.07;100971.53;4988947;28;20046;-54
2022/07/14 00:40:00;;;;;;;3.28;2.45;;;;;;;19.82;62.14;100973.78;4986830;28;20065;-56
2022/07/14 00:42:28;;;;;;;4.43;2.80;;;;;;;19.75;63.03;100978.00;4989345;28;20058;-57
2022/07/14 00:44:56;;;;;;;3.45;2.25;;;;;;;19.68;63.34;100978.56;4995295;28;20065;-57
2022/07/14 00:47:23;;;;;;;5.55;2.60;;;;;;;19.62;63.34;100971.09;4977492;28;20058;-60
2022/07/14 00:49:54;;;;;;;2.40;2.20;;;;;;;19.59;63.28;100970.53;4986473;28;20160;-59
2022/07/14 00:52:22;;;;;;;3.72;2.70;;;;;;;19.54;63.72;100976.25;4990002;28;20089;-56
2022/07/14 00:54:50;;;;;;;6.28;2.70;;;;;;;19.47;64.30;100978.66;4987549;28;20138;-59
2022/07/14 00:57:18;;;;;;;4.05;2.38;;;;;;;19.41;64.46;100986.41;4957287;28;20455;-52
2022/07/14 00:59:46;;;;;;;5.90;2.70;;;;;;;19.38;64.53;100984.00;4968742;28;20062;-59
2022/07/14 01:02:14;;;;;;;4.50;2.78;;;;;;;19.35;64.73;100984.25;5001366;28;20050;-54
2022/07/14 01:04:41;;;;;;;4.35;2.60;;;;;;;19.31;64.86;100980.19;4994783;28;20064;-55
2022/07/14 01:07:08;;;;;;;6.03;2.30;;;;;;;19.29;64.42;100982.16;4988673;28;20061;-59
2022/07/14 01:09:35;;;;;;;2.65;2.10;;;;;;;19.26;64.14;100990.44;4988933;28;20057;-57
2022/07/14 01:12:02;;;;;;;5.80;2.47;;;;;;;19.21;64.07;100985.50;4987967;28;20117;-59
2022/07/14 01:14:42;;;;;;;3.53;2.10;;;;;;;19.15;64.18;100986.06;5054705;23;20052;-87
2022/07/14 01:17:12;;;;;;;2.35;1.75;;;;;;;19.11;64.31;101000.66;5052198;28;20052;-86
2022/07/14 01:19:55;;;;;;;2.75;2.05;;;;;;;19.07;64.38;100997.41;5046553;28;20071;-84
2022/07/14 01:22:30;;;;;;;8.82;2.58;;;;;;;19.00;64.82;100990.91;5041564;28;20049;-85
2022/07/14 01:25:19;;;;;;;4.60;2.22;;;;;;;18.96;64.96;100997.53;5030521;28;20371;-85
2022/07/14 01:28:04;;;;;;;5.93;2.63;;;;;;;18.93;64.67;101001.31;5016472;28;20620;-85
2022/07/14 01:30:38;;;;;;;4.57;2.50;;;;;;;18.87;64.57;101007.19;5025647;28;20109;-86
2022/07/14 01:33:22;;;;;;;5.28;2.55;;;;;;;18.83;65.34;100999.59;5035808;28;20076;-87
2022/07/14 01:36:13;;;;;;;4.80;2.10;;;;;;;18.74;65.50;100998.56;5042111;28;20140;-87
2022/07/14 01:38:46;;;;;;;4.25;1.90;;;;;;;18.61;64.79;100997.91;5046462;28;20520;-86
2022/07/14 01:41:20;;;;;;;7.10;1.83;;;;;;;18.55;63.99;101001.97;5030860;28;20037;-87
2022/07/14 01:44:07;;;;;;;6.70;2.28;;;;;;;18.50;63.92;101008.66;5056764;28;20040;-85
2022/07/14 01:46:51;;;;;;;4.07;2.17;;;;;;;18.48;64.13;101012.28;5046668;28;20029;-85
2022/07/14 01:49:23;;;;;;;4.55;1.90;;;;;;;18.44;64.15;101005.53;5032473;23;20041;-58
2022/07/14 01:51:50;;;;;;;3.30;1.75;;;;;;;18.39;64.11;101004.25;5022200;28;20474;-60
2022/07/14 01:54:17;;;;;;;8.07;2.10;;;;;;;18.32;64.71;101006.56;5031509;28;20060;-59
2022/07/14 01:56:44;;;;;;;4.97;2.00;;;;;;;18.27;65.00;101008.78;5029126;28;20081;-62
2022/07/14 01:59:12;;;;;;;6.28;2.30;;;;;;;18.22;65.27;101003.84;5031587;28;20144;-57
2022/07/14 02:01:39;;;;;;;4.50;1.90;;;;;;;18.19;65.53;101011.25;5028376;28;20049;-59
2022/07/14 02:04:14;;;;;;;2.55;1.95;;;;;;;18.13;65.97;101017.13;5030902;28;20532;-62
2022/07/14 02:13:34;;;;;;;4.63;2.00;;;;;;;17.95;66.43;101027.50;5015689;28;20671;-61
2022/07/14 02:16:01;;;;;;;4.63;2.00;;;;;;;17.89;67.21;101033.34;5037965;28;20045;-60
2022/07/14 02:18:28;;;;;;;8.73;2.08;;;;;;;17.80;66.97;101026.13;5029537;28;20054;-62
2022/07/14 02:20:56;;;;;;;7.68;2.30;;;;;;;17.72;67.76;101022.22;5029201;28;20049;-60
2022/07/14 02:23:23;;;;;;;5.75;2.35;;;;;;;17.65;68.37;101030.84;5024353;28;20064;-61
2022/07/14 02:25:50;;;;;;;6.30;2.50;;;;;;;17.61;68.16;101035.59;5009402;28;20712;-59
2022/07/14 02:28:17;;;;;;;6.40;2.10;;;;;;;17.56;68.62;101034.25;5012889;28;20054;-58
2022/07/14 02:30:45;;;;;;;6.60;2.55;;;;;;;17.51;68.56;101039.97;5029557;28;20571;-57
2022/07/14 02:33:12;;;;;;;7.20;1.83;;;;;;;17.44;68.74;101046.78;5011066;28;20068;-58
2022/07/14 02:35:39;;;;;;;5.00;1.63;;;;;;;17.40;68.75;101048.84;5008713;28;20399;-60
2022/07/14 02:38:07;;;;;;;5.18;1.80;;;;;;;17.34;69.18;101037.84;5010682;28;20054;-60
2022/07/14 02:40:34;;;;;;;7.22;2.22;;;;;;;17.29;69.36;101040.00;5011552;28;20549;-60
2022/07/14 02:43:02;;;;;;;6.72;1.80;;;;;;;17.25;69.43;101041.25;5030668;28;20063;-59
2022/07/14 02:45:29;;;;;;;10.55;2.30;;;;;;;17.18;69.46;101044.38;5034614;28;20093;-60
2022/07/14 02:47:56;;;;;;;7.18;1.90;;;;;;;17.13;69.36;101033.28;5030236;28;20066;-59
2022/07/14 02:50:23;;;;;;;4.38;1.70;;;;;;;17.09;69.31;101042.47;5013451;28;20057;-60
2022/07/14 02:52:50;;;;;;;6.45;1.80;;;;;;;17.05;69.69;101049.00;5010966;28;20080;-60
2022/07/14 02:55:17;;;;;;;9.15;1.80;;;;;;;17.01;69.91;101063.50;5008950;28;20068;-58
2022/07/14 02:57:44;;;;;;;8.68;1.98;;;;;;;16.98;70.37;101073.56;5010146;28;20061;-61
2022/07/14 03:00:12;;;;;;;10.68;2.63;;;;;;;16.90;70.89;101064.34;5009092;28;20080;-58
2022/07/14 03:02:39;;;;;;;7.45;1.80;;;;;;;16.83;71.17;101071.09;5035701;28;20156;-61
2022/07/14 03:05:06;;;;;;;8.60;2.58;;;;;;;16.79;71.19;101068.81;5027922;28;20088;-58
2022/07/14 03:07:34;;;;;;;10.25;2.25;;;;;;;16.78;71.01;101067.13;5021425;28;20068;-60
2022/07/14 03:10:01;;;;;;;4.68;1.90;;;;;;;16.77;71.30;101068.94;5008299;28;21012;-58
2022/07/14 03:12:28;;;;;;;10.77;2.83;;;;;;;16.70;71.46;101078.31;5010593;28;20054;-58
2022/07/14 03:14:55;;;;;;;6.55;2.10;;;;;;;16.64;71.59;101073.47;5035561;28;20063;-59
2022/07/14 03:17:22;;;;;;;7.10;1.95;;;;;;;16.60;71.22;101075.53;5028532;28;20057;-60
2022/07/14 03:19:49;;;;;;;11.43;2.40;;;;;;;16.59;71.75;101073.00;5027612;28;20073;-60
2022/07/14 03:22:17;;;;;;;7.10;1.80;;;;;;;16.54;71.75;101072.50;5028529;28;20052;-59
2022/07/14 03:24:44;;;;;;;9.55;2.55;;;;;;;16.54;71.42;101080.47;5028188;28;20378;-60
2022/07/14 03:27:11;;;;;;;7.43;1.85;;;;;;;16.56;71.48;101081.19;5023556;28;20054;-59
2022/07/14 03:29:42;;;;;;;10.32;2.35;;;;;;;16.54;71.41;101077.81;5009271;28;20132;-59
2022/07/14 03:32:10;;;;;;;6.95;2.15;;;;;;;16.52;71.94;101080.56;5009182;28;20141;-61
2022/07/14 03:34:37;;;;;;;7.63;2.25;;;;;;;16.46;71.79;101073.94;5009070;28;20058;-59
2022/07/14 03:37:04;;;;;;;10.25;2.33;;;;;;;16.45;71.93;101074.91;5007741;28;20057;-61
2022/07/14 03:39:31;;;;;;;13.20;2.67;;;;;;;16.40;72.05;101087.69;5009517;28;20057;-61
2022/07/14 03:41:58;;;;;;;8.18;2.78;;;;;;;16.39;72.29;101093.97;5022063;28;20045;-59
2022/07/14 03:44:25;;;;;;;7.90;2.28;;;;;;;16.38;72.30;101099.38;5028667;28;20053;-60
2022/07/14 03:46:52;;;;;;;8.40;2.30;;;;;;;16.36;72.61;101098.66;5020218;28;20057;-57
2022/07/14 03:49:20;;;;;;;9.90;2.10;;;;;;;16.34;72.32;101101.41;5028313;28;20053;-61
2022/07/14 03:51:47;;;;;;;10.20;2.10;;;;;;;16.30;72.22;101102.66;5023185;28;20132;-61
2022/07/14 03:54:14;;;;;;;8.43;2.15;;;;;;;16.32;72.43;101103.34;5029035;28;20061;-59
2022/07/14 03:56:41;;;;;;;21.73;3.00;;;;;;;16.29;72.27;101103.56;5014649;28;20050;-59
2022/07/14 03:59:10;;;;;;;8.20;1.73;;;;;;;16.26;72.46;101106.50;5008835;28;20137;-60
2022/07/14 04:01:38;;;;;;;8.70;2.25;;;;;;;16.23;72.48;101112.03;5024627;28;20053;-60
2022/07/14 04:04:05;;;;;;;14.13;2.50;;;;;;;16.13;73.26;101095.09;5038548;28;20367;-58
2022/07/14 04:06:32;;;;;;;11.15;2.33;;;;;;;16.08;73.15;101108.72;5029319;28;20057;-61
2022/07/14 04:09:00;;;;;;;11.68;2.70;;;;;;;16.06;73.41;101107.13;5030209;28;20084;-60
2022/07/14 04:11:28;;;;;;;9.70;3.15;;;;;;;16.00;74.21;101103.13;5031915;28;20095;-61
2022/07/14 04:13:55;;;;;;;8.40;2.33;;;;;;;15.97;73.83;101102.50;5035579;28;20552;-60
2022/07/14 04:16:22;;;;;;;13.68;3.03;;;;;;;15.97;73.75;101103.31;5033140;28;20050;-60
2022/07/14 04:18:49;;;;;;;13.43;3.22;;;;;;;15.94;73.75;101103.56;5032718;28;20049;-57
2022/07/14 04:21:16;;;;;;;13.35;3.53;;;;;;;15.91;73.71;101101.97;5032163;28;20076;-60
2022/07/14 04:23:44;;;;;;;12.70;2.78;;;;;;;15.96;73.24;101112.25;5029087;28;20054;-60
2022/07/14 04:26:11;;;;;;;16.48;3.65;;;;;;;15.98;73.68;101112.97;5029580;28;20053;-60
2022/07/14 04:28:38;;;;;;;13.95;3.47;;;;;;;15.96;73.95;101112.25;5028647;28;20065;-61
2022/07/14 04:31:08;;;;;;;9.82;2.85;;;;;;;15.91;74.18;101120.56;5022238;28;20042;-61
2022/07/14 04:33:37;;;;;;;14.00;3.38;;;;;;;15.88;74.21;101122.59;5022903;28;20046;-59
2022/07/14 04:36:05;;;;;;;10.75;3.55;;;;;;;15.91;74.28;101127.69;5026294;28;20088;-59
2022/07/14 04:38:33;;;;;;;19.00;3.28;;;;;;;15.85;74.51;101125.47;5037084;28;20061;-60
2022/07/14 04:41:00;;;;;;;8.88;2.60;;;;;;;15.88;74.37;101125.25;5025625;28;20049;-61
2022/07/14 04:43:27;;;;;;;11.82;3.85;;;;;;;15.84;74.78;101121.97;5038062;28;20056;-62
2022/07/14 04:45:55;;;;;;;17.75;3.63;;;;;;;15.90;74.54;101118.03;5033711;28;20431;-59
2022/07/14 04:48:22;;;;;;;15.63;3.25;;;;;;;15.98;73.96;101122.75;5031397;28;20137;-61
2022/07/14 04:53:37;;;;;;;14.60;3.08;;;;;;;16.08;73.59;101118.50;5032434;28;20049;-58
2022/07/14 04:56:04;;;;;;;10.77;3.47;;;;;;;16.10;73.71;101114.75;5036402;28;20068;-60
2022/07/14 04:58:31;;;;;;;12.70;3.15;;;;;;;16.17;73.36;101123.97;5034701;28;20076;-61
2022/07/14 05:00:59;;;;;;;10.20;2.72;;;;;;;16.25;72.92;101125.19;5042644;28;20052;-60
2022/07/14 05:03:26;;;;;;;17.85;3.95;;;;;;;16.20;72.55;101121.06;5042264;28;20053;-59
2022/07/14 05:05:53;;;;;;;21.58;3.35;;;;;;;16.18;72.65;101115.03;5036207;28;20049;-60
2022/07/14 05:08:21;;;;;;;11.80;2.80;;;;;;;16.20;72.89;101117.56;5029214;28;20045;-60
2022/07/14 05:10:49;;;;;;;15.38;3.42;;;;;;;16.22;72.73;101114.81;5033872;28;20497;-60
2022/07/14 05:13:16;;;;;;;16.08;3.80;;;;;;;16.27;72.50;101120.63;5041136;28;20049;-60
2022/07/14 05:15:43;;;;;;;12.70;2.75;;;;;;;16.08;73.04;101116.69;5043112;28;20065;-61
2022/07/14 05:18:10;;;;;;;18.73;3.25;;;;;;;16.06;73.43;101115.09;5023238;28;20052;-61
2022/07/14 05:20:38;;;;;;;13.60;2.90;;;;;;;16.25;72.98;101118.06;5035920;28;20065;-61
2022/07/14 05:23:05;;;;;;;12.20;2.83;;;;;;;16.31;72.05;101116.78;5036756;28;20357;-60
2022/07/14 05:25:32;;;;;;;13.60;2.83;;;;;;;16.34;72.28;101121.84;5035102;28;20628;-61
2022/07/14 05:27:59;;;;;;;17.20;2.65;;;;;;;16.50;71.83;101121.53;5036101;28;20087;-60
2022/07/14 05:30:26;;;;;;;13.02;2.85;;;;;;;16.43;71.48;101124.63;5037338;28;20056;-60
2022/07/14 05:32:56;;;;;;;11.98;2.67;;;;;;;16.45;71.71;101124.53;5026749;28;20060;-60
2022/07/14 05:35:23;;;;;;;15.43;3.15;;;;;;;16.60;71.25;101136.66;5036576;28;20062;-60
2022/07/14 05:37:51;;;;;;;13.95;2.90;;;;;;;16.77;71.08;101134.56;5037364;28;20053;-59
2022/07/14 05:40:18;;;;;;;14.77;3.47;;;;;;;16.86;70.51;101136.50;5036265;28;20049;-57
2022/07/14 05:42:45;;;;;;;14.13;2.83;;;;;;;16.96;70.56;101145.47;5038825;28;20516;-61
2022/07/14 05:45:12;;;;;;;20.80;3.97;;;;;;;17.00;69.96;101136.28;5040454;28;20061;-58
2022/07/14 05:47:41;;;;;;;13.52;3.53;;;;;;;16.99;69.90;101141.75;5034713;28;20061;-60
2022/07/14 05:50:09;;;;;;;15.02;3.35;;;;;;;16.94;69.23;101142.94;5033681;28;20712;-60
2022/07/14 05:52:36;;;;;;;8.60;2.08;;;;;;;16.89;69.37;101141.59;5038072;28;20049;-60
2022/07/14 05:55:04;;;;;;;20.35;3.05;;;;;;;16.75;70.12;101152.44;5033923;28;20056;-60
2022/07/14 05:57:31;;;;;;;12.93;2.95;;;;;;;16.82;70.10;101143.03;5036423;28;20050;-60
2022/07/14 06:00:06;;;;;;;16.63;2.92;;;;;;;17.01;69.63;101145.97;5026483;28;20514;-59
2022/07/14 06:02:34;;;;;;;18.98;3.70;;;;;;;17.15;69.08;101147.53;5029660;28;20049;-58
2022/07/14 06:05:01;;;;;;;10.98;2.70;;;;;;;17.13;68.52;101139.69;5033907;28;20068;-60
2022/07/14 06:07:28;;;;;;;16.30;2.83;;;;;;;17.07;68.59;101142.84;5033955;28;20049;-60
2022/07/14 06:09:56;;;;;;;18.60;3.13;;;;;;;17.11;68.55;101152.28;5028196;28;20054;-60
2022/07/14 06:12:23;;;;;;;15.10;2.58;;;;;;;17.17;68.42;101149.13;5041133;28;20462;-60
2022/07/14 06:14:50;;;;;;;19.48;2.92;;;;;;;17.31;68.25;101160.50;5041191;28;20049;-60
2022/07/14 06:17:17;;;;;;;16.05;3.25;;;;;;;17.54;67.71;101154.19;5034065;28;20156;-59
2022/07/14 06:19:44;;;;;;;11.10;2.90;;;;;;;17.77;66.92;101154.19;5029344;28;20420;-59
2022/07/14 06:22:12;;;;;;;11.38;2.30;;;;;;;17.94;66.24;101151.03;5032790;28;20049;-58
2022/07/14 06:24:41;;;;;;;11.63;2.70;;;;;;;18.03;65.37;101146.75;5035969;28;20145;-59
2022/07/14 06:27:14;;;;;;;9.57;2.53;;;;;;;18.13;65.22;101153.00;5032868;28;20056;-59
2022/07/14 06:29:41;;;;;;;10.15;2.42;;;;;;;18.20;64.60;101148.88;5035175;28;20141;-59
2022/07/14 06:32:08;;;;;;;11.95;2.63;;;;;;;18.23;64.12;101140.63;5034715;28;20049;-59
2022/07/14 06:34:35;;;;;;;13.38;2.63;;;;;;;18.14;63.68;101146.69;5031940;28;20046;-60
2022/07/14 06:37:03;;;;;;;16.48;3.17;;;;;;;17.93;63.75;101144.00;5035241;28;20328;-55
2022/07/14 06:39:30;;;;;;;9.65;2.45;;;;;;;17.84;63.92;101145.59;5027925;28;20639;-56
2022/07/14 06:41:57;;;;;;;12.05;2.83;;;;;;;17.81;64.23;101145.00;5033270;28;20079;-60
2022/07/14 06:44:24;;;;;;;23.40;3.83;;;;;;;17.62;63.92;101145.59;5028801;28;20394;-59
2022/07/14 06:46:53;;;;;;;21.45;3.00;;;;;;;17.66;64.04;101153.22;5038544;28;20060;-60
2022/07/14 06:49:21;;;;;;;10.77;2.92;;;;;;;17.66;63.81;101163.03;5031339;28;20484;-58
2022/07/14 06:51:48;;;;;;;10.80;2.53;;;;;;;17.80;63.77;101143.31;5038651;28;20084;-56
2022/07/14 06:54:22;;;;;;;25.80;3.50;;;;;;;18.05;62.93;101156.28;5030996;28;20092;-60
2022/07/14 06:56:49;;;;;;;10.63;1.98;;;;;;;18.22;62.50;101152.25;5034803;28;20056;-59
2022/07/14 06:59:17;;;;;;;17.15;3.47;;;;;;;18.37;62.02;101147.47;5033500;28;20054;-61
2022/07/14 07:01:44;;;;;;;11.88;2.30;;;;;;;18.56;60.92;101146.78;5028831;28;20053;-60
2022/07/14 07:04:11;;;;;;;9.10;2.15;;;;;;;18.71;60.77;101151.69;5033101;28;20513;-60
2022/07/14 07:06:45;;;;;;;9.35;2.08;;;;;;;18.85;59.55;101141.66;5034222;28;20046;-59
2022/07/14 07:09:13;;;;;;;13.13;2.47;;;;;;;19.02;57.96;101146.41;5038593;28;20064;-60
2022/07/14 07:11:41;;;;;;;11.50;2.40;;;;;;;18.88;57.65;101149.41;5028463;28;20057;-60
2022/07/14 07:14:09;;;;;;;12.93;2.20;;;;;;;18.77;57.65;101150.31;5040173;28;20057;-61
2022/07/14 07:16:36;;;;;;;6.38;1.77;;;;;;;18.67;56.63;101139.56;5053704;22;20063;-77
2022/07/14 07:19:04;;;;;;;6.20;1.80;;;;;;;18.51;56.12;101147.19;5044040;28;20578;-77
2022/07/14 07:21:31;;;;;;;10.65;2.00;;;;;;;18.39;56.17;101143.72;5049226;28;20056;-78
2022/07/14 07:23:58;;;;;;;15.20;2.13;;;;;;;18.32;55.58;101139.84;5032808;28;20584;-77
2022/07/14 07:26:26;;;;;;;7.57;2.08;;;;;;;18.43;55.21;101130.97;5052415;28;20053;-77
2022/07/14 07:28:54;;;;;;;5.85;1.80;;;;;;;18.48;55.57;101128.75;5050034;28;20064;-77
2022/07/14 07:31:28;;;;;;;;;;;;;;;18.35;55.97;101134.28;5017606;28;20044;-77
2022/07/14 07:34:00;;;;;;;7.95;1.85;;;;;;;18.40;53.61;101124.06;5039942;28;19920;-77
2022/07/14 07:36:27;;;;;;;6.80;1.75;;;;;;;18.28;54.13;101121.56;5033476;28;20147;-77
2022/07/14 07:38:55;;;;;;;8.20;1.70;;;;;;;18.23;54.46;101108.63;5035625;28;20338;-77
2022/07/14 07:41:33;;;;;;;6.75;1.73;;;;;;;18.20;54.61;101112.41;5049814;28;20144;-75
2022/07/14 07:44:03;;;;;;;8.40;1.90;;;;;;;18.21;53.94;101102.59;5037491;28;20041;-74
2022/07/14 07:46:30;;;;;;;10.07;1.83;;;;;;;18.37;53.13;101111.00;5040934;28;20075;-74
2022/07/14 07:48:57;;;;;;;9.18;1.40;;;;;;;18.23;51.61;101111.28;5037837;28;20069;-74
2022/07/14 07:51:25;;;;;;;6.60;1.42;;;;;;;18.39;50.42;101100.22;5031245;28;20055;-74
2022/07/14 07:53:52;;;;;;;8.70;2.10;;;;;;;18.51;51.47;101099.19;5050767;28;20059;-75
2022/07/14 07:56:19;;;;;;;7.28;1.30;;;;;;;18.80;51.90;101090.53;5052316;28;20060;-75
2022/07/14 07:58:46;;;;;;;11.88;1.63;;;;;;;18.88;51.61;101099.56;5030337;28;20041;-74
2022/07/14 08:01:14;;;;;;;7.78;1.65;;;;;;;18.86;51.64;101095.34;5039661;28;20045;-74
2022/07/14 08:03:41;;;;;;;13.07;1.98;;;;;;;18.84;52.29;101092.81;5042093;28;20041;-74
2022/07/14 08:06:11;;;;;;;8.65;2.08;;;;;;;18.94;51.85;101087.50;5053224;28;20064;-74
2022/07/14 08:09:23;;;;;;;6.35;1.67;;;;;;;18.87;51.09;101099.72;5040008;28;20133;-75
2022/07/14 08:11:50;;;;;;;9.23;1.90;;;;;;;18.90;51.52;101092.25;5018670;28;20063;-74
2022/07/14 08:17:03;;;;;;;9.98;1.70;;;;;;;18.77;50.82;101078.28;5055415;28;20052;-74
2022/07/14 08:19:32;;;;;;;14.45;1.88;;;;;;;18.79;50.64;101088.84;5047689;28;20502;-74
2022/07/14 08:21:59;;;;;;;10.23;1.80;;;;;;;18.92;49.19;101086.81;5037101;28;20040;-74
2022/07/14 08:24:28;;;;;;;8.43;1.73;;;;;;;18.96;49.91;101086.41;5040380;28;20064;-74
2022/07/14 08:26:55;;;;;;;11.48;1.98;;;;;;;19.10;50.36;101079.88;5038725;28;20041;-75
2022/07/14 08:29:23;;;;;;;9.90;1.92;;;;;;;19.25;50.39;101084.84;5048861;28;20500;-75
2022/07/14 08:31:50;;;;;;;11.65;1.88;;;;;;;19.36;49.98;101090.94;5052426;28;20048;-74
2022/07/14 08:34:17;;;;;;;7.97;1.52;;;;;;;19.42;49.36;101085.03;5031842;28;20040;-75
2022/07/14 08:36:44;;;;;;;7.63;2.00;;;;;;;19.50;49.46;101087.03;5036876;28;20052;-74
2022/07/14 08:39:12;;;;;;;7.95;1.45;;;;;;;19.48;48.23;101087.16;5033594;28;20422;-74
2022/07/14 08:41:39;;;;;;;4.97;1.75;;;;;;;19.59;48.61;101070.19;5038244;28;20041;-77
2022/07/14 08:44:06;;;;;;;3.45;1.20;;;;;;;19.63;47.77;101081.44;5035708;28;20408;-76
2022/07/14 08:46:36;;;;;;;7.03;1.55;;;;;;;19.65;46.31;101077.66;5035546;28;20410;-77
2022/07/14 08:49:10;;;;;;;10.00;1.20;;;;;;;19.52;45.77;101074.38;5048520;28;20060;-77
2022/07/14 08:51:39;;;;;;;10.30;2.15;;;;;;;19.52;46.04;101071.72;5057888;28;20053;-77
2022/07/14 08:54:09;;;;;;;8.05;1.45;;;;;;;19.59;44.85;101064.00;5051758;28;20053;-76
2022/07/14 08:56:37;;;;;;;12.15;1.58;;;;;;;19.56;44.57;101064.28;5035561;28;20277;-76
2022/07/14 08:59:04;;;;;;;10.02;1.55;;;;;;;19.65;44.48;101056.31;5055677;28;20041;-76
2022/07/14 09:01:32;;;;;;;6.30;1.30;;;;;;;19.53;45.30;101069.88;5051999;28;20049;-74
2022/07/14 09:03:59;;;;;;;6.13;1.45;;;;;;;19.77;45.46;101056.16;5052462;28;20049;-75
2022/07/14 09:06:45;;;;;;;12.57;2.47;;;;;;;19.89;45.37;101055.88;5042343;28;20056;-74
2022/07/14 09:09:17;;;;;;;11.07;1.75;;;;;;;20.01;45.11;101051.25;5030475;28;20144;-75
2022/07/14 09:11:49;;;;;;;8.38;1.85;;;;;;;19.97;45.03;101045.34;5057404;28;20045;-74
2022/07/14 09:14:26;;;;;;;13.93;2.05;;;;;;;20.18;44.99;101045.19;5044922;28;20051;-74
2022/07/14 09:17:13;;;;;;;8.40;1.50;;;;;;;20.25;43.36;101050.81;5037147;28;20044;-74
2022/07/14 09:20:10;;;;;;;8.13;1.75;;;;;;;20.26;43.51;101057.00;5041788;28;20052;-74
2022/07/14 09:22:39;;;;;;;4.70;1.17;;;;;;;20.07;42.25;101053.34;5037891;28;20041;-74
2022/07/14 09:25:13;;;;;;;3.80;1.17;;;;;;;20.08;43.00;101049.69;5033112;28;20495;-74
2022/07/14 09:27:41;;;;;;;5.53;1.50;;;;;;;20.06;42.30;101027.63;5024950;28;20059;-74
2022/07/14 09:30:10;;;;;;;8.43;1.17;;;;;;;20.17;42.72;101034.63;5031032;28;20147;-75
2022/07/14 09:32:44;;;;;;;6.05;1.17;;;;;;;20.21;42.25;101034.22;5027633;28;20045;-74
2022/07/14 09:35:13;;;;;;;9.55;1.00;;;;;;;20.29;41.89;101035.34;5038499;28;20987;-74
2022/07/14 09:37:42;;;;;;;6.25;1.35;;;;;;;20.46;41.72;101031.91;5020791;28;20048;-74
2022/07/14 09:40:13;;;;;;;9.88;1.48;;;;;;;20.51;42.02;101023.50;5033375;28;20188;-75
2022/07/14 09:43:00;;;;;;;6.63;1.42;;;;;;;20.78;42.96;101017.34;5032669;28;20056;-75
2022/07/14 09:45:35;;;;;;;9.15;1.17;;;;;;;20.42;41.34;101015.31;5040064;28;20148;-75
2022/07/14 09:48:07;;;;;;;4.55;1.20;;;;;;;20.54;40.21;101016.03;5022114;28;20087;-75
2022/07/14 09:50:42;;;;;;;7.10;0.80;;;;;;;20.47;40.24;101010.41;5027382;28;20057;-75
2022/07/14 09:53:11;;;;;;;10.13;1.75;;;;;;;20.57;41.00;101010.38;5054139;28;20483;-75
2022/07/14 09:55:41;;;;;;;6.75;1.65;;;;;;;20.80;39.85;101016.19;5053284;28;20044;-75
2022/07/14 09:58:10;;;;;;;3.53;1.13;;;;;;;20.82;39.13;101011.56;5050702;28;20045;-76
2022/07/14 10:00:37;;;;;;;5.60;1.42;;;;;;;20.69;39.19;101008.38;5039762;28;20065;-75
2022/07/14 10:03:05;;;;;;;3.03;1.10;;;;;;;20.77;39.79;101002.28;5051753;28;20048;-75
2022/07/14 10:05:34;;;;;;;5.68;1.55;;;;;;;20.83;39.65;100997.19;5054043;28;20429;-75
2022/07/14 10:08:03;;;;;;;6.25;1.55;;;;;;;20.96;40.04;100999.53;5048863;28;20050;-74
2022/07/14 10:10:34;;;;;;;8.38;1.75;;;;;;;21.18;39.71;100993.75;5056303;28;20060;-74
2022/07/14 10:13:04;;;;;;;8.18;1.70;;;;;;;21.30;38.65;100988.19;5055192;28;20053;-75
2022/07/14 10:15:38;;;;;;;12.82;1.88;;;;;;;21.23;39.11;100988.78;5060942;28;20052;-74
2022/07/14 10:18:05;;;;;;;7.63;1.50;;;;;;;21.24;38.64;100985.13;5052828;28;20041;-74
2022/07/14 10:20:33;;;;;;;6.47;1.20;;;;;;;21.21;37.90;100995.31;5055937;28;20052;-74
2022/07/14 10:23:00;;;;;;;2.92;0.80;;;;;;;20.96;37.48;100996.84;5046013;28;20045;-74
2022/07/14 10:25:28;;;;;;;4.03;1.00;;;;;;;21.15;38.08;100991.38;5035927;28;20514;-74
2022/07/14 10:27:55;;;;;;;6.88;1.15;;;;;;;21.49;37.77;100991.63;5046479;28;20083;-74
2022/07/14 10:30:50;;;;;;;7.05;1.52;;;;;;;21.67;36.42;100996.97;5046689;28;20068;-74
2022/07/14 10:33:56;;;;;;;10.73;1.40;;;;;;;21.79;37.03;100992.22;5021544;28;20060;-75
2022/07/14 10:36:37;;;;;;;3.17;0.98;;;;;;;21.99;36.00;100991.06;5040010;28;20084;-74
2022/07/14 10:39:24;;;;;;;3.83;0.98;;;;;;;21.71;36.07;100984.97;5037141;28;20049;-75
2022/07/14 10:42:00;;;;;;;4.47;0.82;;;;;;;21.72;35.60;100991.16;5048968;28;20045;-75
2022/07/14 10:44:29;;;;;;;6.43;1.00;;;;;;;21.55;35.91;100998.19;5035769;28;20112;-73
2022/07/14 10:47:06;;;;;;;6.72;1.17;;;;;;;21.43;36.53;100986.88;5058745;28;20101;-75
2022/07/14 10:50:00;;;;;;;5.93;0.93;;;;;;;21.47;37.15;100990.91;5035891;28;20059;-75
2022/07/14 10:52:32;;;;;;;2.70;0.70;;;;;;;21.72;34.87;100988.47;5049603;28;20372;-75
2022/07/14 10:55:21;;;;;;;7.93;0.90;;;;;;;21.91;34.79;100985.63;5037776;28;20048;-75
2022/07/14 11:00:55;;;;;;;4.90;1.00;;;;;;;21.91;35.93;100972.22;5045167;28;20048;-75
2022/07/14 11:03:27;;;;;;;5.53;1.27;;;;;;;21.96;35.04;100971.75;5056864;28;20057;-75
2022/07/14 11:06:09;;;;;;;5.50;1.00;;;;;;;22.16;35.45;100973.28;5052325;28;20135;-75
2022/07/14 11:09:22;;;;;;;3.05;0.93;;;;;;;22.50;35.17;100962.56;5034166;28;20045;-75
2022/07/14 11:12:09;;;;;;;5.45;1.17;;;;;;;22.56;34.25;100961.13;5048852;28;20049;-75
2022/07/14 11:14:41;;;;;;;6.15;1.20;;;;;;;22.73;34.04;100959.34;5042961;28;20295;-75
2022/07/14 11:17:38;;;;;;;6.60;1.35;;;;;;;22.56;34.13;100958.44;5052316;28;20482;-75
2022/07/14 11:20:08;;;;;;;5.88;1.38;;;;;;;22.59;34.82;100960.78;5033711;28;20056;-76
2022/07/14 11:22:36;;;;;;;3.70;1.13;;;;;;;22.94;33.79;100961.63;5055064;28;20399;-75
2022/07/14 11:25:04;;;;;;;4.22;1.00;;;;;;;22.68;34.27;100958.97;5049093;28;20140;-75
2022/07/14 11:27:48;;;;;;;5.22;0.90;;;;;;;22.86;33.74;100948.97;5034951;28;20053;-74
2022/07/14 11:30:21;;;;;;;5.80;1.02;;;;;;;23.02;33.81;100942.03;5036987;28;20145;-74
2022/07/14 11:33:27;;;;;;;4.63;0.90;;;;;;;23.26;33.82;100936.72;5035506;28;20049;-74
2022/07/14 11:39:36;;;;;;;4.40;1.23;;;;;;;22.98;33.62;100928.94;5053117;28;20459;-75
2022/07/14 11:42:14;;;;;;;3.88;1.13;;;;;;;23.30;34.11;100931.84;5024015;28;20053;-74
2022/07/14 11:44:41;;;;;;;11.57;1.38;;;;;;;23.25;33.59;100930.50;5059947;28;20375;-74
2022/07/14 11:47:23;;;;;;;3.13;0.77;;;;;;;23.48;33.57;100929.84;5055288;28;20413;-74
2022/07/14 11:49:52;;;;;;;3.42;1.05;;;;;;;23.49;33.01;100931.53;5048440;28;20044;-73
2022/07/14 11:52:33;;;;;;;4.80;1.40;;;;;;;23.62;33.03;100929.19;5030876;28;20057;-75
2022/07/14 11:55:04;;;;;;;4.65;0.95;;;;;;;24.00;32.64;100916.06;5032892;28;20078;-75